Portada
METAR-TAF:

METAR-TAF

Aeropuertos :

Ushuaia, Argentina

Aeropuerto Internacional Malvinas Argentinas

latitud: 54-48S, longitud: 068-19W, altitud: 16 m

Observación

El informe se hizo hace 45 minutos, a las 09:00 UTC
Viento 9 kt del oeste
Temperatura 7°C
Humedad 70%
Presión 1014 hPa
Visibilidad 10 km o más
Nubes dispersas a una altura de 4000 ft

METAR: SAWH 250900Z 27009KT 9999 SCT040 07/02 Q1014

Hora: 06:45 (09:45 UTC)

Pronóstico

El informe se hizo hace 4 horas y 45 minutos, a las 05:00 UTC
Pronóstico válido del 25 a las 06 UTC al 26 a las 05 UTC
Viento 20 kt del oeste
Cielo cubierto a una altura de 3000 ft
Evolucionando progresivamente
del 25 a las 10 UTC al 25 a las 12 UTC
Viento 15 kt del suroeste

TAF: SAWH 250500Z 2506/2605 27020KT 9999-DZ OVC030 TX15/2519Z TN05/2512Z BECMG 2510/2512 23015KT

Observaciones y pronósticos meteorológicos de más de 4000 aeropuertos (mensajes METAR y TAF).

Los puntos amarillos y rojos representan las estaciones disponibles.

Ponga el ratón en el punto deseado para ver el nombre de la estación.

Haga clic para ver las observaciones y los pronósticos meteorológicos.

Para cambiar el mapa : haga clic en los botones verdes con una cruz de color negro para hacer un zoom, en el botón verde con un guión para alejar o en las flechas verdes para mapas adyacentes.


METAR-TAF: